sensor_id;sensor_type;location;lat;lon;timestamp;temperature;humidity
8248;DHT22;4164;49.844;8.830;2022-09-09T00:02:16;15.90;99.90
8248;DHT22;4164;49.844;8.830;2022-09-09T00:05:04;16.00;99.90
8248;DHT22;4164;49.844;8.830;2022-09-09T00:07:51;15.90;99.90
8248;DHT22;4164;49.844;8.830;2022-09-09T00:15:41;15.80;99.90
8248;DHT22;4164;49.844;8.830;2022-09-09T00:20:44;15.80;99.90
8248;DHT22;4164;49.844;8.830;2022-09-09T00:23:14;15.80;99.90
8248;DHT22;4164;49.844;8.830;2022-09-09T00:26:05;15.70;99.90
8248;DHT22;4164;49.844;8.830;2022-09-09T00:28:41;15.80;99.90
8248;DHT22;4164;49.844;8.830;2022-09-09T00:31:20;15.70;99.90
8248;DHT22;4164;49.844;8.830;2022-09-09T00:33:48;15.80;99.90
8248;DHT22;4164;49.844;8.830;2022-09-09T00:36:21;15.80;99.90
8248;DHT22;4164;49.844;8.830;2022-09-09T00:38:56;15.90;99.90
8248;DHT22;4164;49.844;8.830;2022-09-09T00:44:33;16.00;99.90
8248;DHT22;4164;49.844;8.830;2022-09-09T00:58:13;16.40;99.90
8248;DHT22;4164;49.844;8.830;2022-09-09T01:00:45;16.40;99.90
8248;DHT22;4164;49.844;8.830;2022-09-09T01:03:25;16.40;99.90
8248;DHT22;4164;49.844;8.830;2022-09-09T01:11:01;16.40;99.90
8248;DHT22;4164;49.844;8.830;2022-09-09T01:13:33;16.40;99.90
8248;DHT22;4164;49.844;8.830;2022-09-09T01:16:01;16.30;99.90
8248;DHT22;4164;49.844;8.830;2022-09-09T01:18:34;16.20;99.90
8248;DHT22;4164;49.844;8.830;2022-09-09T01:28:52;15.90;99.90
8248;DHT22;4164;49.844;8.830;2022-09-09T01:31:39;15.90;99.90
8248;DHT22;4164;49.844;8.830;2022-09-09T01:34:14;15.90;99.90
8248;DHT22;4164;49.844;8.830;2022-09-09T01:37:10;15.90;99.90
8248;DHT22;4164;49.844;8.830;2022-09-09T01:39:38;15.80;99.90
8248;DHT22;4164;49.844;8.830;2022-09-09T01:42:08;15.80;99.90
8248;DHT22;4164;49.844;8.830;2022-09-09T01:44:34;15.90;99.90
8248;DHT22;4164;49.844;8.830;2022-09-09T01:47:01;15.80;99.90
8248;DHT22;4164;49.844;8.830;2022-09-09T01:49:27;15.80;99.90
8248;DHT22;4164;49.844;8.830;2022-09-09T01:51:55;15.90;99.90
8248;DHT22;4164;49.844;8.830;2022-09-09T01:54:23;15.80;99.90
8248;DHT22;4164;49.844;8.830;2022-09-09T02:05:30;15.70;99.90
8248;DHT22;4164;49.844;8.830;2022-09-09T02:08:09;15.70;99.90
8248;DHT22;4164;49.844;8.830;2022-09-09T02:10:37;15.70;99.90
8248;DHT22;4164;49.844;8.830;2022-09-09T02:13:10;15.70;99.90
8248;DHT22;4164;49.844;8.830;2022-09-09T02:15:45;15.60;99.90
8248;DHT22;4164;49.844;8.830;2022-09-09T02:18:14;15.60;99.90
8248;DHT22;4164;49.844;8.830;2022-09-09T02:20:42;15.60;99.90
8248;DHT22;4164;49.844;8.830;2022-09-09T02:23:09;15.60;99.90
8248;DHT22;4164;49.844;8.830;2022-09-09T02:25:36;15.70;99.90
8248;DHT22;4164;49.844;8.830;2022-09-09T02:28:06;15.80;99.90
8248;DHT22;4164;49.844;8.830;2022-09-09T02:30:34;16.00;99.90
8248;DHT22;4164;49.844;8.830;2022-09-09T02:33:01;16.10;99.90
8248;DHT22;4164;49.844;8.830;2022-09-09T02:35:29;16.30;99.90
8248;DHT22;4164;49.844;8.830;2022-09-09T02:37:59;16.40;99.90
8248;DHT22;4164;49.844;8.830;2022-09-09T02:40:27;16.50;99.90
8248;DHT22;4164;49.844;8.830;2022-09-09T02:42:54;16.50;99.90
8248;DHT22;4164;49.844;8.830;2022-09-09T02:45:23;16.70;99.90
8248;DHT22;4164;49.844;8.830;2022-09-09T02:50:39;16.80;99.90
8248;DHT22;4164;49.844;8.830;2022-09-09T02:53:18;16.80;99.90
8248;DHT22;4164;49.844;8.830;2022-09-09T02:55:46;16.80;99.90
8248;DHT22;4164;49.844;8.830;2022-09-09T02:58:16;16.90;99.90
8248;DHT22;4164;49.844;8.830;2022-09-09T03:00:44;16.90;99.90
8248;DHT22;4164;49.844;8.830;2022-09-09T03:03:10;16.90;99.90
8248;DHT22;4164;49.844;8.830;2022-09-09T03:05:36;16.90;99.90
8248;DHT22;4164;49.844;8.830;2022-09-09T03:08:03;16.90;99.90
8248;DHT22;4164;49.844;8.830;2022-09-09T03:10:28;16.90;99.90
8248;DHT22;4164;49.844;8.830;2022-09-09T03:12:54;16.90;99.90
8248;DHT22;4164;49.844;8.830;2022-09-09T03:15:20;16.90;99.90
8248;DHT22;4164;49.844;8.830;2022-09-09T03:17:46;16.80;99.90
8248;DHT22;4164;49.844;8.830;2022-09-09T03:20:12;16.80;99.90
8248;DHT22;4164;49.844;8.830;2022-09-09T03:22:38;16.70;99.90
8248;DHT22;4164;49.844;8.830;2022-09-09T03:25:03;16.70;99.90
8248;DHT22;4164;49.844;8.830;2022-09-09T03:27:29;16.70;99.90
8248;DHT22;4164;49.844;8.830;2022-09-09T03:29:55;16.70;99.90
8248;DHT22;4164;49.844;8.830;2022-09-09T03:32:22;16.70;99.90
8248;DHT22;4164;49.844;8.830;2022-09-09T03:34:48;16.60;99.90
8248;DHT22;4164;49.844;8.830;2022-09-09T03:37:15;16.60;99.90
8248;DHT22;4164;49.844;8.830;2022-09-09T03:39:41;16.60;99.90
8248;DHT22;4164;49.844;8.830;2022-09-09T03:42:07;16.60;99.90
8248;DHT22;4164;49.844;8.830;2022-09-09T03:44:32;16.50;99.90
8248;DHT22;4164;49.844;8.830;2022-09-09T03:46:57;16.40;99.90
8248;DHT22;4164;49.844;8.830;2022-09-09T03:49:25;16.40;99.90
8248;DHT22;4164;49.844;8.830;2022-09-09T03:51:51;16.40;99.90
8248;DHT22;4164;49.844;8.830;2022-09-09T03:54:16;16.30;99.90
8248;DHT22;4164;49.844;8.830;2022-09-09T03:56:42;16.30;99.90
8248;DHT22;4164;49.844;8.830;2022-09-09T03:59:08;16.30;99.90
8248;DHT22;4164;49.844;8.830;2022-09-09T04:01:34;16.30;99.90
8248;DHT22;4164;49.844;8.830;2022-09-09T04:04:00;16.30;99.90
8248;DHT22;4164;49.844;8.830;2022-09-09T04:06:27;16.20;99.90
8248;DHT22;4164;49.844;8.830;2022-09-09T04:08:53;16.20;99.90
8248;DHT22;4164;49.844;8.830;2022-09-09T04:11:20;16.20;99.90
8248;DHT22;4164;49.844;8.830;2022-09-09T04:13:46;16.10;99.90
8248;DHT22;4164;49.844;8.830;2022-09-09T04:16:12;16.20;99.90
8248;DHT22;4164;49.844;8.830;2022-09-09T04:18:40;16.10;99.90
8248;DHT22;4164;49.844;8.830;2022-09-09T04:21:06;16.10;99.90
8248;DHT22;4164;49.844;8.830;2022-09-09T04:23:33;16.10;99.90
8248;DHT22;4164;49.844;8.830;2022-09-09T04:26:01;16.10;99.90
8248;DHT22;4164;49.844;8.830;2022-09-09T04:28:29;16.10;99.90
8248;DHT22;4164;49.844;8.830;2022-09-09T04:30:55;16.10;99.90
8248;DHT22;4164;49.844;8.830;2022-09-09T04:33:23;16.10;99.90
8248;DHT22;4164;49.844;8.830;2022-09-09T04:35:51;16.10;99.90
8248;DHT22;4164;49.844;8.830;2022-09-09T04:38:19;16.10;99.90
8248;DHT22;4164;49.844;8.830;2022-09-09T04:40:47;16.20;99.90
8248;DHT22;4164;49.844;8.830;2022-09-09T04:43:13;16.10;99.90
8248;DHT22;4164;49.844;8.830;2022-09-09T04:45:43;16.10;99.90
8248;DHT22;4164;49.844;8.830;2022-09-09T04:48:09;16.10;99.90
8248;DHT22;4164;49.844;8.830;2022-09-09T04:50:35;16.10;99.90
8248;DHT22;4164;49.844;8.830;2022-09-09T04:53:05;16.00;99.90
8248;DHT22;4164;49.844;8.830;2022-09-09T04:55:31;16.00;99.90
8248;DHT22;4164;49.844;8.830;2022-09-09T04:57:56;16.00;99.90
8248;DHT22;4164;49.844;8.830;2022-09-09T05:00:25;16.00;99.90
8248;DHT22;4164;49.844;8.830;2022-09-09T05:02:51;16.00;99.90
8248;DHT22;4164;49.844;8.830;2022-09-09T05:05:16;16.00;99.90
8248;DHT22;4164;49.844;8.830;2022-09-09T05:07:42;16.10;99.90
8248;DHT22;4164;49.844;8.830;2022-09-09T05:10:08;16.20;99.90
8248;DHT22;4164;49.844;8.830;2022-09-09T05:12:35;16.20;99.90
8248;DHT22;4164;49.844;8.830;2022-09-09T05:15:00;16.20;99.90
8248;DHT22;4164;49.844;8.830;2022-09-09T05:17:26;16.30;99.90
8248;DHT22;4164;49.844;8.830;2022-09-09T05:19:53;16.30;99.90
8248;DHT22;4164;49.844;8.830;2022-09-09T05:22:19;16.20;99.90
8248;DHT22;4164;49.844;8.830;2022-09-09T05:24:45;16.30;99.90
8248;DHT22;4164;49.844;8.830;2022-09-09T05:27:11;16.30;99.90
8248;DHT22;4164;49.844;8.830;2022-09-09T05:29:37;16.40;99.90
8248;DHT22;4164;49.844;8.830;2022-09-09T05:32:04;16.40;99.90
8248;DHT22;4164;49.844;8.830;2022-09-09T05:34:29;16.60;99.90
8248;DHT22;4164;49.844;8.830;2022-09-09T05:36:55;16.60;99.90
8248;DHT22;4164;49.844;8.830;2022-09-09T05:39:20;16.60;99.90
8248;DHT22;4164;49.844;8.830;2022-09-09T05:41:46;16.60;99.90
8248;DHT22;4164;49.844;8.830;2022-09-09T05:44:12;16.70;99.90
8248;DHT22;4164;49.844;8.830;2022-09-09T05:46:37;16.80;99.90
8248;DHT22;4164;49.844;8.830;2022-09-09T05:49:03;16.80;99.90
8248;DHT22;4164;49.844;8.830;2022-09-09T05:51:30;16.80;99.90
8248;DHT22;4164;49.844;8.830;2022-09-09T05:53:56;16.80;99.90
8248;DHT22;4164;49.844;8.830;2022-09-09T05:56:25;16.80;99.90
8248;DHT22;4164;49.844;8.830;2022-09-09T05:58:52;16.70;99.90
8248;DHT22;4164;49.844;8.830;2022-09-09T06:01:22;16.80;99.90
8248;DHT22;4164;49.844;8.830;2022-09-09T06:03:49;16.80;99.90
8248;DHT22;4164;49.844;8.830;2022-09-09T06:06:20;16.90;99.90
8248;DHT22;4164;49.844;8.830;2022-09-09T06:08:48;16.90;99.90
8248;DHT22;4164;49.844;8.830;2022-09-09T06:11:21;16.90;99.90
8248;DHT22;4164;49.844;8.830;2022-09-09T06:13:48;17.00;99.90
8248;DHT22;4164;49.844;8.830;2022-09-09T06:16:17;17.20;99.90
8248;DHT22;4164;49.844;8.830;2022-09-09T06:18:43;17.40;99.90
8248;DHT22;4164;49.844;8.830;2022-09-09T06:21:15;17.70;99.90
8248;DHT22;4164;49.844;8.830;2022-09-09T06:23:40;17.70;99.90
8248;DHT22;4164;49.844;8.830;2022-09-09T06:26:12;17.70;99.90
8248;DHT22;4164;49.844;8.830;2022-09-09T06:28:38;17.50;99.90
8248;DHT22;4164;49.844;8.830;2022-09-09T06:31:09;17.60;99.90
8248;DHT22;4164;49.844;8.830;2022-09-09T06:33:36;17.80;99.90
8248;DHT22;4164;49.844;8.830;2022-09-09T06:36:04;17.90;99.90
8248;DHT22;4164;49.844;8.830;2022-09-09T06:38:30;18.10;99.90
8248;DHT22;4164;49.844;8.830;2022-09-09T06:40:58;18.20;99.90
8248;DHT22;4164;49.844;8.830;2022-09-09T06:43:25;18.30;99.90
8248;DHT22;4164;49.844;8.830;2022-09-09T06:46:04;18.30;99.90
8248;DHT22;4164;49.844;8.830;2022-09-09T06:48:31;18.30;99.90
8248;DHT22;4164;49.844;8.830;2022-09-09T06:51:06;18.40;99.90
8248;DHT22;4164;49.844;8.830;2022-09-09T06:53:34;18.70;99.90
8248;DHT22;4164;49.844;8.830;2022-09-09T06:58:41;18.60;99.90
8248;DHT22;4164;49.844;8.830;2022-09-09T07:01:12;18.50;99.90
8248;DHT22;4164;49.844;8.830;2022-09-09T07:03:38;18.40;99.90
8248;DHT22;4164;49.844;8.830;2022-09-09T07:06:05;18.40;99.90
8248;DHT22;4164;49.844;8.830;2022-09-09T07:08:31;18.40;99.90
8248;DHT22;4164;49.844;8.830;2022-09-09T07:11:05;18.20;99.90
8248;DHT22;4164;49.844;8.830;2022-09-09T07:13:31;18.30;99.90
8248;DHT22;4164;49.844;8.830;2022-09-09T07:16:04;18.60;99.90
8248;DHT22;4164;49.844;8.830;2022-09-09T07:18:30;18.50;99.90
8248;DHT22;4164;49.844;8.830;2022-09-09T07:20:56;18.40;99.90
8248;DHT22;4164;49.844;8.830;2022-09-09T07:23:22;18.40;99.90
8248;DHT22;4164;49.844;8.830;2022-09-09T07:25:48;18.30;99.90
8248;DHT22;4164;49.844;8.830;2022-09-09T07:28:14;18.40;99.90
8248;DHT22;4164;49.844;8.830;2022-09-09T07:30:40;18.40;99.90
8248;DHT22;4164;49.844;8.830;2022-09-09T07:33:06;18.40;99.90
8248;DHT22;4164;49.844;8.830;2022-09-09T07:35:31;18.40;99.90
8248;DHT22;4164;49.844;8.830;2022-09-09T07:37:57;18.20;99.90
8248;DHT22;4164;49.844;8.830;2022-09-09T07:40:24;18.10;99.90
8248;DHT22;4164;49.844;8.830;2022-09-09T07:42:49;18.20;99.90
8248;DHT22;4164;49.844;8.830;2022-09-09T07:45:15;18.40;99.90
8248;DHT22;4164;49.844;8.830;2022-09-09T07:47:41;18.40;99.90
8248;DHT22;4164;49.844;8.830;2022-09-09T07:50:09;18.50;99.90
8248;DHT22;4164;49.844;8.830;2022-09-09T07:52:35;18.30;99.90
8248;DHT22;4164;49.844;8.830;2022-09-09T07:55:01;18.30;99.90
8248;DHT22;4164;49.844;8.830;2022-09-09T07:57:28;18.30;99.90
8248;DHT22;4164;49.844;8.830;2022-09-09T07:59:56;18.40;99.90
8248;DHT22;4164;49.844;8.830;2022-09-09T08:02:23;18.60;99.90
8248;DHT22;4164;49.844;8.830;2022-09-09T08:04:48;18.50;99.90
8248;DHT22;4164;49.844;8.830;2022-09-09T08:07:14;18.40;99.90
8248;DHT22;4164;49.844;8.830;2022-09-09T08:09:41;18.50;99.90
8248;DHT22;4164;49.844;8.830;2022-09-09T08:12:07;18.60;99.90
8248;DHT22;4164;49.844;8.830;2022-09-09T08:14:33;18.50;99.90
8248;DHT22;4164;49.844;8.830;2022-09-09T08:16:59;18.50;99.90
8248;DHT22;4164;49.844;8.830;2022-09-09T08:19:25;18.50;99.90
8248;DHT22;4164;49.844;8.830;2022-09-09T08:21:50;18.50;99.90
8248;DHT22;4164;49.844;8.830;2022-09-09T08:24:16;18.60;99.90
8248;DHT22;4164;49.844;8.830;2022-09-09T08:26:44;18.70;99.90
8248;DHT22;4164;49.844;8.830;2022-09-09T08:29:11;19.00;99.90
8248;DHT22;4164;49.844;8.830;2022-09-09T08:31:45;19.10;99.90
8248;DHT22;4164;49.844;8.830;2022-09-09T08:34:12;19.50;99.90
8248;DHT22;4164;49.844;8.830;2022-09-09T08:36:40;19.60;99.90
8248;DHT22;4164;49.844;8.830;2022-09-09T08:39:08;19.90;99.90
8248;DHT22;4164;49.844;8.830;2022-09-09T08:49:53;19.90;99.90
8248;DHT22;4164;49.844;8.830;2022-09-09T08:53:26;19.90;99.90
8248;DHT22;4164;49.844;8.830;2022-09-09T08:58:13;19.70;99.90
8248;DHT22;4164;49.844;8.830;2022-09-09T09:09:07;20.20;99.90
8248;DHT22;4164;49.844;8.830;2022-09-09T09:11:36;20.10;99.90
8248;DHT22;4164;49.844;8.830;2022-09-09T09:14:09;19.90;99.90
8248;DHT22;4164;49.844;8.830;2022-09-09T09:16:51;20.00;99.90
8248;DHT22;4164;49.844;8.830;2022-09-09T09:19:18;19.90;99.90
8248;DHT22;4164;49.844;8.830;2022-09-09T09:21:44;20.10;99.90
8248;DHT22;4164;49.844;8.830;2022-09-09T09:24:33;20.30;99.90
8248;DHT22;4164;49.844;8.830;2022-09-09T09:27:14;20.50;99.90
8248;DHT22;4164;49.844;8.830;2022-09-09T09:29:40;20.60;99.90
8248;DHT22;4164;49.844;8.830;2022-09-09T09:32:11;20.00;99.90
8248;DHT22;4164;49.844;8.830;2022-09-09T09:34:39;20.20;99.90
8248;DHT22;4164;49.844;8.830;2022-09-09T09:37:26;20.40;99.90
8248;DHT22;4164;49.844;8.830;2022-09-09T09:39:53;20.30;99.90
8248;DHT22;4164;49.844;8.830;2022-09-09T09:42:19;20.40;99.90
8248;DHT22;4164;49.844;8.830;2022-09-09T09:44:44;20.70;99.90
8248;DHT22;4164;49.844;8.830;2022-09-09T09:47:15;20.60;99.90
8248;DHT22;4164;49.844;8.830;2022-09-09T09:49:55;21.30;99.90
8248;DHT22;4164;49.844;8.830;2022-09-09T09:52:25;21.60;99.90
8248;DHT22;4164;49.844;8.830;2022-09-09T09:54:52;21.60;99.90
8248;DHT22;4164;49.844;8.830;2022-09-09T09:57:24;21.30;99.90
8248;DHT22;4164;49.844;8.830;2022-09-09T10:00:04;20.60;99.90
8248;DHT22;4164;49.844;8.830;2022-09-09T10:02:38;20.40;99.90
8248;DHT22;4164;49.844;8.830;2022-09-09T10:05:12;20.30;99.90
8248;DHT22;4164;49.844;8.830;2022-09-09T10:07:37;20.30;99.90
8248;DHT22;4164;49.844;8.830;2022-09-09T10:10:05;20.50;99.90
8248;DHT22;4164;49.844;8.830;2022-09-09T10:13:01;20.50;99.90
8248;DHT22;4164;49.844;8.830;2022-09-09T10:15:44;20.40;99.90
8248;DHT22;4164;49.844;8.830;2022-09-09T10:21:32;20.30;99.90
8248;DHT22;4164;49.844;8.830;2022-09-09T10:24:49;20.60;99.90
8248;DHT22;4164;49.844;8.830;2022-09-09T10:27:38;21.10;99.90
8248;DHT22;4164;49.844;8.830;2022-09-09T10:30:24;21.70;99.90
8248;DHT22;4164;49.844;8.830;2022-09-09T10:33:08;21.60;99.90
8248;DHT22;4164;49.844;8.830;2022-09-09T10:38:12;21.40;99.90
8248;DHT22;4164;49.844;8.830;2022-09-09T10:43:51;22.00;99.90
8248;DHT22;4164;49.844;8.830;2022-09-09T10:52:15;24.60;99.90
8248;DHT22;4164;49.844;8.830;2022-09-09T10:55:14;27.60;99.90
8248;DHT22;4164;49.844;8.830;2022-09-09T10:58:05;26.90;99.90
8248;DHT22;4164;49.844;8.830;2022-09-09T11:03:04;30.10;90.90
8248;DHT22;4164;49.844;8.830;2022-09-09T11:05:45;31.40;83.00
8248;DHT22;4164;49.844;8.830;2022-09-09T11:08:24;31.90;75.60
8248;DHT22;4164;49.844;8.830;2022-09-09T11:14:19;27.70;86.20
8248;DHT22;4164;49.844;8.830;2022-09-09T11:17:09;31.00;75.60
8248;DHT22;4164;49.844;8.830;2022-09-09T11:19:40;31.90;71.20
8248;DHT22;4164;49.844;8.830;2022-09-09T11:24:57;29.10;74.10
8248;DHT22;4164;49.844;8.830;2022-09-09T11:33:23;30.80;70.00
8248;DHT22;4164;49.844;8.830;2022-09-09T11:38:48;30.70;63.50
8248;DHT22;4164;49.844;8.830;2022-09-09T11:41:16;31.70;62.80
8248;DHT22;4164;49.844;8.830;2022-09-09T11:43:43;31.90;59.70
8248;DHT22;4164;49.844;8.830;2022-09-09T11:46:10;33.20;59.00
8248;DHT22;4164;49.844;8.830;2022-09-09T11:48:40;33.00;57.30
8248;DHT22;4164;49.844;8.830;2022-09-09T11:51:30;31.60;58.10
8248;DHT22;4164;49.844;8.830;2022-09-09T11:54:29;32.60;57.60
8248;DHT22;4164;49.844;8.830;2022-09-09T11:56:55;31.10;58.60
8248;DHT22;4164;49.844;8.830;2022-09-09T11:59:29;31.60;57.60
8248;DHT22;4164;49.844;8.830;2022-09-09T12:01:59;31.50;60.00
8248;DHT22;4164;49.844;8.830;2022-09-09T12:04:30;31.60;59.10
8248;DHT22;4164;49.844;8.830;2022-09-09T12:14:42;23.90;89.00
8248;DHT22;4164;49.844;8.830;2022-09-09T12:17:30;24.60;90.90
8248;DHT22;4164;49.844;8.830;2022-09-09T12:25:55;22.90;99.90
8248;DHT22;4164;49.844;8.830;2022-09-09T12:28:49;22.60;99.90
8248;DHT22;4164;49.844;8.830;2022-09-09T12:31:43;22.50;99.90
8248;DHT22;4164;49.844;8.830;2022-09-09T12:36:38;22.30;99.90
8248;DHT22;4164;49.844;8.830;2022-09-09T12:39:22;22.20;99.90
8248;DHT22;4164;49.844;8.830;2022-09-09T12:41:51;21.90;99.90
8248;DHT22;4164;49.844;8.830;2022-09-09T12:44:26;22.00;99.90
8248;DHT22;4164;49.844;8.830;2022-09-09T12:46:54;21.90;99.90
8248;DHT22;4164;49.844;8.830;2022-09-09T12:49:34;21.90;99.90
8248;DHT22;4164;49.844;8.830;2022-09-09T12:52:23;21.90;99.90
8248;DHT22;4164;49.844;8.830;2022-09-09T12:54:50;22.10;99.90
8248;DHT22;4164;49.844;8.830;2022-09-09T12:57:19;22.20;99.90
8248;DHT22;4164;49.844;8.830;2022-09-09T12:59:47;22.20;99.90
8248;DHT22;4164;49.844;8.830;2022-09-09T13:02:24;22.60;99.90
8248;DHT22;4164;49.844;8.830;2022-09-09T13:04:50;22.90;99.90
8248;DHT22;4164;49.844;8.830;2022-09-09T13:07:18;23.30;99.90
8248;DHT22;4164;49.844;8.830;2022-09-09T13:09:44;23.80;99.90
8248;DHT22;4164;49.844;8.830;2022-09-09T13:12:21;24.40;99.90
8248;DHT22;4164;49.844;8.830;2022-09-09T13:14:50;24.00;99.90
8248;DHT22;4164;49.844;8.830;2022-09-09T13:17:25;24.30;99.90
8248;DHT22;4164;49.844;8.830;2022-09-09T13:19:52;23.70;99.90
8248;DHT22;4164;49.844;8.830;2022-09-09T13:22:38;23.20;99.90
8248;DHT22;4164;49.844;8.830;2022-09-09T13:27:37;22.30;99.90
8248;DHT22;4164;49.844;8.830;2022-09-09T13:30:26;21.70;99.90
8248;DHT22;4164;49.844;8.830;2022-09-09T13:35:27;21.40;99.90
8248;DHT22;4164;49.844;8.830;2022-09-09T13:37:53;21.40;99.90
8248;DHT22;4164;49.844;8.830;2022-09-09T13:40:22;21.40;99.90
8248;DHT22;4164;49.844;8.830;2022-09-09T13:42:53;21.40;99.90
8248;DHT22;4164;49.844;8.830;2022-09-09T13:45:23;21.30;99.90
8248;DHT22;4164;49.844;8.830;2022-09-09T13:47:50;21.40;99.90
8248;DHT22;4164;49.844;8.830;2022-09-09T13:50:23;21.40;99.90
8248;DHT22;4164;49.844;8.830;2022-09-09T13:52:49;21.00;99.90
8248;DHT22;4164;49.844;8.830;2022-09-09T13:55:17;20.80;99.90
8248;DHT22;4164;49.844;8.830;2022-09-09T13:57:54;20.70;99.90
8248;DHT22;4164;49.844;8.830;2022-09-09T14:00:21;20.80;99.90
8248;DHT22;4164;49.844;8.830;2022-09-09T14:02:48;20.70;99.90
8248;DHT22;4164;49.844;8.830;2022-09-09T14:05:13;20.60;99.90
8248;DHT22;4164;49.844;8.830;2022-09-09T14:07:41;20.60;99.90
8248;DHT22;4164;49.844;8.830;2022-09-09T14:10:07;20.20;99.90
8248;DHT22;4164;49.844;8.830;2022-09-09T14:12:33;20.00;99.90
8248;DHT22;4164;49.844;8.830;2022-09-09T14:14:59;19.80;99.90
8248;DHT22;4164;49.844;8.830;2022-09-09T14:17:25;20.20;99.90
8248;DHT22;4164;49.844;8.830;2022-09-09T14:19:54;20.50;99.90
8248;DHT22;4164;49.844;8.830;2022-09-09T14:22:20;20.80;99.90
8248;DHT22;4164;49.844;8.830;2022-09-09T14:24:45;21.00;99.90
8248;DHT22;4164;49.844;8.830;2022-09-09T14:27:11;21.60;99.90
8248;DHT22;4164;49.844;8.830;2022-09-09T14:29:37;21.80;99.90
8248;DHT22;4164;49.844;8.830;2022-09-09T14:32:02;21.60;99.90
8248;DHT22;4164;49.844;8.830;2022-09-09T14:34:28;21.60;99.90
8248;DHT22;4164;49.844;8.830;2022-09-09T14:36:54;21.60;99.90
8248;DHT22;4164;49.844;8.830;2022-09-09T14:39:19;21.70;99.90
8248;DHT22;4164;49.844;8.830;2022-09-09T14:41:45;21.50;99.90
8248;DHT22;4164;49.844;8.830;2022-09-09T14:44:11;21.00;99.90
8248;DHT22;4164;49.844;8.830;2022-09-09T14:46:36;20.80;99.90
8248;DHT22;4164;49.844;8.830;2022-09-09T14:49:02;20.80;99.90
8248;DHT22;4164;49.844;8.830;2022-09-09T14:51:27;20.90;99.90
8248;DHT22;4164;49.844;8.830;2022-09-09T14:53:58;21.10;99.90
8248;DHT22;4164;49.844;8.830;2022-09-09T14:56:26;21.30;99.90
8248;DHT22;4164;49.844;8.830;2022-09-09T14:58:54;21.20;99.90
8248;DHT22;4164;49.844;8.830;2022-09-09T15:01:21;21.20;99.90
8248;DHT22;4164;49.844;8.830;2022-09-09T15:03:52;21.20;99.90
8248;DHT22;4164;49.844;8.830;2022-09-09T15:06:19;21.10;99.90
8248;DHT22;4164;49.844;8.830;2022-09-09T15:08:46;21.10;99.90
8248;DHT22;4164;49.844;8.830;2022-09-09T15:11:13;21.20;99.90
8248;DHT22;4164;49.844;8.830;2022-09-09T15:13:40;21.10;99.90
8248;DHT22;4164;49.844;8.830;2022-09-09T15:16:11;21.30;99.90
8248;DHT22;4164;49.844;8.830;2022-09-09T15:18:37;21.30;99.90
8248;DHT22;4164;49.844;8.830;2022-09-09T15:21:12;21.10;99.90
8248;DHT22;4164;49.844;8.830;2022-09-09T15:23:38;21.10;99.90
8248;DHT22;4164;49.844;8.830;2022-09-09T15:26:04;20.90;99.90
8248;DHT22;4164;49.844;8.830;2022-09-09T15:28:32;20.70;99.90
8248;DHT22;4164;49.844;8.830;2022-09-09T15:31:05;20.50;99.90
8248;DHT22;4164;49.844;8.830;2022-09-09T15:33:32;20.60;99.90
8248;DHT22;4164;49.844;8.830;2022-09-09T15:35:57;20.50;99.90
8248;DHT22;4164;49.844;8.830;2022-09-09T15:38:23;20.50;99.90
8248;DHT22;4164;49.844;8.830;2022-09-09T15:40:55;20.60;99.90
8248;DHT22;4164;49.844;8.830;2022-09-09T15:43:21;20.60;99.90
8248;DHT22;4164;49.844;8.830;2022-09-09T15:45:51;20.60;99.90
8248;DHT22;4164;49.844;8.830;2022-09-09T15:48:19;20.60;99.90
8248;DHT22;4164;49.844;8.830;2022-09-09T15:50:44;20.80;99.90
8248;DHT22;4164;49.844;8.830;2022-09-09T15:53:10;20.70;99.90
8248;DHT22;4164;49.844;8.830;2022-09-09T15:55:36;20.40;99.90
8248;DHT22;4164;49.844;8.830;2022-09-09T15:58:02;20.40;99.90
8248;DHT22;4164;49.844;8.830;2022-09-09T16:00:27;20.60;99.90
8248;DHT22;4164;49.844;8.830;2022-09-09T16:02:54;20.50;99.90
8248;DHT22;4164;49.844;8.830;2022-09-09T16:05:19;20.40;99.90
8248;DHT22;4164;49.844;8.830;2022-09-09T16:07:46;20.30;99.90
8248;DHT22;4164;49.844;8.830;2022-09-09T16:10:13;20.20;99.90
8248;DHT22;4164;49.844;8.830;2022-09-09T16:12:39;20.00;99.90
8248;DHT22;4164;49.844;8.830;2022-09-09T16:15:05;20.00;99.90
8248;DHT22;4164;49.844;8.830;2022-09-09T16:17:31;20.10;99.90
8248;DHT22;4164;49.844;8.830;2022-09-09T16:20:02;20.00;99.90
8248;DHT22;4164;49.844;8.830;2022-09-09T16:22:30;20.00;99.90
8248;DHT22;4164;49.844;8.830;2022-09-09T16:24:56;20.00;99.90
8248;DHT22;4164;49.844;8.830;2022-09-09T16:27:21;20.10;99.90
8248;DHT22;4164;49.844;8.830;2022-09-09T16:29:48;20.10;99.90
8248;DHT22;4164;49.844;8.830;2022-09-09T16:32:14;20.10;99.90
8248;DHT22;4164;49.844;8.830;2022-09-09T16:34:40;20.00;99.90
8248;DHT22;4164;49.844;8.830;2022-09-09T16:37:05;19.90;99.90
8248;DHT22;4164;49.844;8.830;2022-09-09T16:39:31;19.70;99.90
8248;DHT22;4164;49.844;8.830;2022-09-09T16:41:56;19.70;99.90
8248;DHT22;4164;49.844;8.830;2022-09-09T16:44:22;19.40;99.90
8248;DHT22;4164;49.844;8.830;2022-09-09T16:46:48;19.30;99.90
8248;DHT22;4164;49.844;8.830;2022-09-09T16:49:17;19.20;99.90
8248;DHT22;4164;49.844;8.830;2022-09-09T16:51:47;19.10;99.90
8248;DHT22;4164;49.844;8.830;2022-09-09T16:54:14;18.90;99.90
8248;DHT22;4164;49.844;8.830;2022-09-09T16:56:42;18.90;99.90
8248;DHT22;4164;49.844;8.830;2022-09-09T16:59:16;18.80;99.90
8248;DHT22;4164;49.844;8.830;2022-09-09T17:01:43;18.50;99.90
8248;DHT22;4164;49.844;8.830;2022-09-09T17:04:20;18.50;99.90
8248;DHT22;4164;49.844;8.830;2022-09-09T17:06:50;18.50;99.90
8248;DHT22;4164;49.844;8.830;2022-09-09T17:09:17;18.30;99.90
8248;DHT22;4164;49.844;8.830;2022-09-09T17:11:43;18.30;99.90
8248;DHT22;4164;49.844;8.830;2022-09-09T17:14:14;18.20;99.90
8248;DHT22;4164;49.844;8.830;2022-09-09T17:16:40;18.20;99.90
8248;DHT22;4164;49.844;8.830;2022-09-09T17:19:07;18.10;99.90
8248;DHT22;4164;49.844;8.830;2022-09-09T17:21:34;18.10;99.90
8248;DHT22;4164;49.844;8.830;2022-09-09T17:24:00;18.10;99.90
8248;DHT22;4164;49.844;8.830;2022-09-09T17:26:28;18.00;99.90
8248;DHT22;4164;49.844;8.830;2022-09-09T17:28:55;18.00;99.90
8248;DHT22;4164;49.844;8.830;2022-09-09T17:31:27;18.00;99.90
8248;DHT22;4164;49.844;8.830;2022-09-09T17:33:53;18.00;99.90
8248;DHT22;4164;49.844;8.830;2022-09-09T17:36:21;18.00;99.90
8248;DHT22;4164;49.844;8.830;2022-09-09T17:38:48;17.90;99.90
8248;DHT22;4164;49.844;8.830;2022-09-09T17:41:19;17.80;99.90
8248;DHT22;4164;49.844;8.830;2022-09-09T17:43:46;17.80;99.90
8248;DHT22;4164;49.844;8.830;2022-09-09T17:46:15;17.80;99.90
8248;DHT22;4164;49.844;8.830;2022-09-09T17:48:41;17.70;99.90
8248;DHT22;4164;49.844;8.830;2022-09-09T17:51:09;17.60;99.90
8248;DHT22;4164;49.844;8.830;2022-09-09T17:53:40;17.50;99.90
8248;DHT22;4164;49.844;8.830;2022-09-09T17:56:09;17.50;99.90
8248;DHT22;4164;49.844;8.830;2022-09-09T17:58:35;17.50;99.90
8248;DHT22;4164;49.844;8.830;2022-09-09T18:01:06;17.50;99.90
8248;DHT22;4164;49.844;8.830;2022-09-09T18:03:36;17.40;99.90
8248;DHT22;4164;49.844;8.830;2022-09-09T18:06:03;17.40;99.90
8248;DHT22;4164;49.844;8.830;2022-09-09T18:08:30;17.40;99.90
8248;DHT22;4164;49.844;8.830;2022-09-09T18:10:56;17.40;99.90
8248;DHT22;4164;49.844;8.830;2022-09-09T18:13:21;17.50;99.90
8248;DHT22;4164;49.844;8.830;2022-09-09T18:15:47;17.50;99.90
8248;DHT22;4164;49.844;8.830;2022-09-09T18:18:12;17.50;99.90
8248;DHT22;4164;49.844;8.830;2022-09-09T18:20:39;17.50;99.90